Time;durP1;ratioP1;P1;durP2;ratioP2;P2;SDS_P1;SDS_P2;PMS_P1;PMS_P2;Temp;Humidity;BMP_temperature;BMP_pressure;BME280_temperature;BME280_humidity;BME280_pressure;Samples;Min_cycle;Max_cycle;Signal;HPM_P1;HPM_P2
2023/09/16 00:01:06;;;;;;;35.22;20.05;;;;;;;15.22;100.00;101496.19;6073455;19;20359;-74
2023/09/16 00:03:09;;;;;;;40.25;20.42;;;;;;;15.23;100.00;101487.34;6074330;19;20237;-74
2023/09/16 00:05:17;;;;;;;;;;;;;;;15.21;100.00;101494.50;6070687;19;20011;-74
2023/09/16 00:07:23;;;;;;;37.67;19.40;;;;;;;15.17;100.00;101499.09;6071429;19;19919;-74
2023/09/16 00:09:28;;;;;;;35.95;20.95;;;;;;;15.13;100.00;101501.03;6073192;19;20316;-74
2023/09/16 00:11:35;;;;;;;37.30;19.52;;;;;;;15.08;100.00;101495.09;6073725;19;20551;-74
2023/09/16 00:13:44;;;;;;;35.85;20.60;;;;;;;15.05;100.00;101497.03;6073351;19;20527;-74
2023/09/16 00:15:51;;;;;;;43.63;22.08;;;;;;;15.02;100.00;101500.69;6072997;19;20066;-74
2023/09/16 00:17:58;;;;;;;39.15;20.95;;;;;;;15.04;100.00;101493.53;6069785;19;20300;-73
2023/09/16 00:20:04;;;;;;;43.55;21.65;;;;;;;15.04;100.00;101495.34;6072048;19;20471;-74
2023/09/16 00:22:13;;;;;;;40.63;21.95;;;;;;;15.02;100.00;101494.53;6070257;19;20492;-75
2023/09/16 00:24:18;;;;;;;42.45;22.08;;;;;;;15.08;100.00;101494.25;6075088;19;20010;-76
2023/09/16 00:26:23;;;;;;;46.42;23.52;;;;;;;15.08;100.00;101491.59;6070901;19;20770;-74
2023/09/16 00:28:29;;;;;;;50.92;24.00;;;;;;;15.08;100.00;101491.59;6074140;19;20021;-74
2023/09/16 00:30:35;;;;;;;49.50;24.92;;;;;;;15.06;100.00;101485.50;6070441;19;20011;-73
2023/09/16 00:32:40;;;;;;;52.92;25.08;;;;;;;15.07;100.00;101493.38;6072300;19;20022;-74
2023/09/16 00:34:43;;;;;;;47.67;22.85;;;;;;;15.05;100.00;101492.59;6074567;19;20015;-75
2023/09/16 00:36:48;;;;;;;51.92;26.08;;;;;;;15.05;100.00;101489.94;6070957;19;20097;-76
2023/09/16 00:38:57;;;;;;;44.20;23.75;;;;;;;15.01;100.00;101492.81;6071448;19;20094;-75
2023/09/16 00:41:02;;;;;;;52.03;26.75;;;;;;;15.01;100.00;101483.09;6072207;19;20014;-76
2023/09/16 00:43:05;;;;;;;52.38;25.13;;;;;;;14.98;100.00;101492.97;6081244;19;20036;-76
2023/09/16 00:45:12;;;;;;;;;;;;;;;14.95;100.00;101487.81;6078594;19;20022;-75
2023/09/16 00:47:17;;;;;;;53.85;25.80;;;;;;;14.96;100.00;101497.50;6081393;19;20650;-74
2023/09/16 00:49:22;;;;;;;48.65;24.52;;;;;;;14.92;100.00;101488.84;6074478;19;20023;-74
2023/09/16 00:51:27;;;;;;;55.88;25.73;;;;;;;14.93;100.00;101488.78;6077026;19;20039;-75
2023/09/16 00:53:34;;;;;;;52.83;26.33;;;;;;;14.92;100.00;101489.69;6067645;19;20308;-75
2023/09/16 00:55:39;;;;;;;62.38;27.70;;;;;;;14.98;100.00;101492.97;6079827;19;20011;-75
2023/09/16 00:57:50;;;;;;;66.22;28.40;;;;;;;15.01;100.00;101492.81;6070012;19;20385;-73
2023/09/16 00:59:56;;;;;;;59.63;28.52;;;;;;;15.03;100.00;101490.97;6075290;19;20399;-73
2023/09/16 01:02:02;;;;;;;60.80;28.90;;;;;;;15.02;100.00;101490.09;6068450;19;20208;-76
2023/09/16 01:04:09;;;;;;;62.47;30.55;;;;;;;15.02;100.00;101490.09;6067921;19;20592;-76
2023/09/16 01:06:16;;;;;;;57.83;28.83;;;;;;;15.02;100.00;101490.09;6073064;19;20325;-73
2023/09/16 01:08:22;;;;;;;64.95;29.58;;;;;;;14.99;100.00;101486.75;6069042;19;21253;-74
2023/09/16 01:10:27;;;;;;;63.00;29.73;;;;;;;14.95;100.00;101486.03;6070096;19;20018;-75
2023/09/16 01:12:32;;;;;;;63.38;30.08;;;;;;;14.93;100.00;101483.47;6073302;19;20312;-76
2023/09/16 01:14:37;;;;;;;71.32;31.45;;;;;;;14.91;100.00;101487.13;6076816;19;20014;-75
2023/09/16 01:16:48;;;;;;;66.82;30.15;;;;;;;14.91;100.00;101480.03;6070742;19;20658;-74
2023/09/16 01:19:05;;;;;;;59.00;29.58;;;;;;;14.86;100.00;101479.41;6068467;19;20502;-75
2023/09/16 01:21:10;;;;;;;65.80;32.38;;;;;;;14.82;100.00;101471.69;6076403;19;20009;-74
2023/09/16 01:23:19;;;;;;;60.30;29.70;;;;;;;14.77;100.00;101466.63;6073647;19;20024;-74
2023/09/16 01:25:26;;;;;;;71.15;31.45;;;;;;;14.75;100.00;101471.13;6071690;19;20448;-74
2023/09/16 01:27:32;;;;;;;70.63;32.08;;;;;;;14.72;100.00;101476.56;6059353;19;20667;-75
2023/09/16 01:29:37;;;;;;;60.40;29.23;;;;;;;14.69;100.00;101466.13;6071067;19;20253;-76
2023/09/16 01:31:41;;;;;;;69.80;31.58;;;;;;;14.65;100.00;101467.22;6073053;19;20103;-75
2023/09/16 01:33:51;;;;;;;69.28;31.60;;;;;;;14.66;100.00;101471.56;6071719;19;20692;-77
2023/09/16 01:36:07;;;;;;;62.50;29.23;;;;;;;14.61;100.00;101473.56;6066456;19;20051;-75
2023/09/16 01:38:15;;;;;;;69.20;29.70;;;;;;;14.57;100.00;101469.38;6074132;19;20539;-76
2023/09/16 01:40:22;;;;;;;68.70;29.50;;;;;;;14.53;100.00;101473.06;6072201;19;20025;-73
2023/09/16 01:42:33;;;;;;;61.95;28.30;;;;;;;14.46;100.00;101473.34;6071101;19;20316;-73
2023/09/16 01:44:40;;;;;;;67.72;31.05;;;;;;;14.41;100.00;101471.84;6071679;19;20696;-74
2023/09/16 01:46:48;;;;;;;62.22;30.40;;;;;;;14.32;100.00;101467.81;6073739;19;20007;-74
2023/09/16 01:48:56;;;;;;;57.05;26.30;;;;;;;14.30;100.00;101468.81;6072447;19;20014;-73
2023/09/16 01:51:01;;;;;;;64.05;28.92;;;;;;;14.27;100.00;101472.47;6073789;19;20013;-74
2023/09/16 01:53:06;;;;;;;68.40;31.55;;;;;;;14.30;100.00;101463.50;6067888;19;20011;-74
2023/09/16 01:55:12;;;;;;;69.72;32.00;;;;;;;14.30;100.00;101464.41;6068328;19;20011;-76
2023/09/16 01:57:17;;;;;;;72.18;33.78;;;;;;;14.31;100.00;101465.25;6070171;19;20007;-75
2023/09/16 01:59:24;;;;;;;68.70;31.75;;;;;;;14.31;100.00;101466.09;6066795;19;20392;-74
2023/09/16 02:01:29;;;;;;;72.47;30.33;;;;;;;14.31;100.00;101466.09;6069183;19;20047;-73
2023/09/16 02:03:34;;;;;;;76.22;33.45;;;;;;;14.30;100.00;101460.88;6071659;19;20506;-75
2023/09/16 02:05:39;;;;;;;65.68;32.40;;;;;;;14.26;100.00;101458.38;6069658;19;20073;-75
2023/09/16 02:07:46;;;;;;;80.95;34.05;;;;;;;14.21;100.00;101456.88;6067411;19;20200;-76
2023/09/16 02:09:51;;;;;;;71.75;33.58;;;;;;;14.20;100.00;101460.47;6070905;19;20428;-75
2023/09/16 02:11:59;;;;;;;77.57;33.40;;;;;;;14.14;100.00;101468.66;6070706;19;20102;-76
2023/09/16 02:14:04;;;;;;;72.53;35.03;;;;;;;14.10;100.00;101467.09;6070736;19;20035;-74
2023/09/16 02:16:13;;;;;;;70.43;32.28;;;;;;;14.10;100.00;101467.09;6072635;19;20047;-73
2023/09/16 02:18:18;;;;;;;63.33;30.13;;;;;;;14.03;100.00;101467.38;6072370;19;20010;-74
2023/09/16 02:20:23;;;;;;;81.05;33.95;;;;;;;14.00;100.00;101466.63;6073633;19;20542;-75
2023/09/16 02:22:28;;;;;;;69.30;32.78;;;;;;;13.93;100.00;101466.06;6079548;19;20019;-74
2023/09/16 02:24:34;;;;;;;70.65;31.52;;;;;;;13.94;100.00;101467.78;6070045;19;20432;-76
2023/09/16 02:26:39;;;;;;;69.22;30.00;;;;;;;13.91;100.00;101470.56;6072493;19;20440;-75
2023/09/16 02:28:44;;;;;;;70.65;34.15;;;;;;;13.89;100.00;101469.75;6068710;19;20291;-74
2023/09/16 02:30:51;;;;;;;70.65;30.75;;;;;;;13.86;100.00;101467.25;6072818;19;20127;-73
2023/09/16 02:32:58;;;;;;;72.47;31.92;;;;;;;13.85;100.00;101462.91;6073376;19;20119;-76
2023/09/16 02:35:04;;;;;;;69.68;32.65;;;;;;;13.85;100.00;101468.19;6071277;19;20195;-73
2023/09/16 02:37:09;;;;;;;80.78;33.80;;;;;;;13.87;100.00;101476.03;6076658;19;20007;-76
2023/09/16 02:39:16;;;;;;;81.68;34.05;;;;;;;13.87;100.00;101466.31;6074153;19;20346;-74
2023/09/16 02:41:22;;;;;;;73.80;32.88;;;;;;;13.87;100.00;101465.47;6074285;19;20530;-74
2023/09/16 02:43:27;;;;;;;77.35;32.38;;;;;;;13.88;100.00;101465.41;6077218;19;20695;-74
2023/09/16 02:45:32;;;;;;;69.78;30.23;;;;;;;13.88;100.00;101468.06;6069551;19;20031;-75
2023/09/16 02:47:37;;;;;;;75.82;31.65;;;;;;;13.88;100.00;101467.19;6076765;19;20499;-75
2023/09/16 02:49:46;;;;;;;79.10;33.53;;;;;;;13.87;100.00;101471.59;6076590;19;20021;-76
2023/09/16 02:51:51;;;;;;;79.30;34.78;;;;;;;13.86;100.00;101459.34;6071378;19;20113;-76
2023/09/16 02:53:57;;;;;;;88.07;34.22;;;;;;;13.89;100.00;101460.97;6071388;19;20014;-74
2023/09/16 02:56:02;;;;;;;75.78;33.38;;;;;;;13.89;100.00;101458.34;6073728;19;20395;-74
2023/09/16 02:58:08;;;;;;;85.97;37.42;;;;;;;13.87;100.00;101461.03;6074336;19;20382;-76
2023/09/16 03:00:17;;;;;;;73.68;32.65;;;;;;;13.89;100.00;101461.84;6070276;19;20054;-75
2023/09/16 03:02:22;;;;;;;87.90;35.35;;;;;;;13.89;100.00;101453.06;6069822;19;20646;-74
2023/09/16 03:04:27;;;;;;;81.68;34.55;;;;;;;13.88;100.00;101457.47;6066073;19;20007;-73
2023/09/16 03:06:35;;;;;;;79.15;35.70;;;;;;;13.90;100.00;101460.94;6068762;19;20592;-74
2023/09/16 03:08:40;;;;;;;90.57;34.25;;;;;;;13.91;100.00;101459.13;6066618;19;20524;-76
2023/09/16 03:10:46;;;;;;;82.53;34.80;;;;;;;13.88;100.00;101454.84;6074159;19;20021;-76
2023/09/16 03:12:51;;;;;;;80.75;36.38;;;;;;;13.85;100.00;101455.00;6065247;19;20528;-76
2023/09/16 03:14:59;;;;;;;88.78;34.70;;;;;;;13.82;100.00;101455.09;6075931;19;20536;-74
2023/09/16 03:17:04;;;;;;;86.68;36.63;;;;;;;13.80;100.00;101456.97;6072279;19;20042;-76
2023/09/16 03:19:13;;;;;;;85.18;35.70;;;;;;;13.73;100.00;101447.59;6066724;19;20519;-76
2023/09/16 03:21:17;;;;;;;102.78;38.70;;;;;;;13.71;100.00;101444.16;6074191;19;20028;-76
2023/09/16 03:23:25;;;;;;;94.38;40.45;;;;;;;13.69;100.00;101451.28;6076965;19;20042;-75
2023/09/16 03:25:32;;;;;;;100.28;39.40;;;;;;;13.65;100.00;101458.50;6072345;19;20509;-74
2023/09/16 03:27:37;;;;;;;78.95;35.50;;;;;;;13.62;100.00;101453.34;6077584;19;20014;-74
2023/09/16 03:29:42;;;;;;;104.90;40.63;;;;;;;13.70;100.00;101450.38;6075958;19;20590;-76
2023/09/16 03:31:47;;;;;;;98.45;40.95;;;;;;;13.73;100.00;101450.22;6086290;19;20507;-76
2023/09/16 03:33:52;;;;;;;91.55;38.53;;;;;;;13.72;100.00;101445.88;6082062;19;20007;-74
2023/09/16 03:36:01;;;;;;;95.78;37.90;;;;;;;13.72;100.00;101440.59;6075422;19;20276;-74
2023/09/16 03:38:06;;;;;;;86.95;36.83;;;;;;;13.70;100.00;101447.72;6072235;19;20184;-74
2023/09/16 03:40:14;;;;;;;92.93;37.17;;;;;;;13.66;100.00;101440.84;6076332;19;20003;-74
2023/09/16 03:42:19;;;;;;;90.47;35.60;;;;;;;13.60;100.00;101441.97;6080112;19;20042;-75
2023/09/16 03:44:24;;;;;;;92.13;37.53;;;;;;;13.55;100.00;101434.25;6076817;19;20057;-75
2023/09/16 03:46:30;;;;;;;92.78;37.38;;;;;;;13.57;100.00;101434.19;6079309;19;20598;-74
2023/09/16 03:48:35;;;;;;;91.30;35.53;;;;;;;13.56;100.00;101440.38;6080765;19;20197;-74
2023/09/16 03:50:41;;;;;;;88.03;34.83;;;;;;;13.52;100.00;101433.53;6081902;19;20114;-74
2023/09/16 03:52:44;;;;;;;88.57;36.03;;;;;;;13.47;100.00;101428.44;6080701;19;20018;-75
2023/09/16 03:54:49;;;;;;;77.85;35.72;;;;;;;13.45;100.00;101434.72;6076671;19;20027;-75
2023/09/16 03:57:00;;;;;;;79.38;33.78;;;;;;;13.43;100.00;101436.56;6077692;19;20371;-75
2023/09/16 03:59:05;;;;;;;86.18;34.00;;;;;;;13.39;100.00;101431.41;6079670;19;20011;-75
2023/09/16 04:01:10;;;;;;;79.20;35.65;;;;;;;13.39;100.00;101430.56;6081637;19;20022;-75
2023/09/16 04:03:16;;;;;;;93.28;39.38;;;;;;;13.37;100.00;101435.91;6083224;19;20018;-75
2023/09/16 04:05:21;;;;;;;87.18;35.80;;;;;;;13.36;100.00;101426.28;6076099;19;20671;-75
2023/09/16 04:07:26;;;;;;;133.68;44.80;;;;;;;13.32;100.00;101432.63;6077377;19;20249;-75
2023/09/16 04:09:29;;;;;;;124.63;43.25;;;;;;;13.27;100.00;101431.06;6075695;19;19999;-75
2023/09/16 04:11:35;;;;;;;111.28;40.65;;;;;;;13.26;100.00;101437.25;6078066;19;20010;-75
2023/09/16 04:13:43;;;;;;;99.68;38.53;;;;;;;13.22;100.00;101425.97;6073635;19;20736;-74
2023/09/16 04:15:48;;;;;;;91.53;34.78;;;;;;;13.19;100.00;101428.72;6075548;19;20474;-74
2023/09/16 04:17:55;;;;;;;112.75;42.05;;;;;;;13.19;100.00;101436.63;6076077;19;20027;-74
2023/09/16 04:19:57;;;;;;;90.88;37.42;;;;;;;13.16;100.00;101436.78;6077558;19;20015;-74
2023/09/16 04:22:03;;;;;;;92.88;37.38;;;;;;;13.18;100.00;101435.78;6083297;19;20398;-76
2023/09/16 04:24:06;;;;;;;74.43;32.30;;;;;;;13.22;100.00;101436.53;6087178;19;20229;-75
2023/09/16 04:26:13;;;;;;;78.63;34.70;;;;;;;13.24;100.00;101436.44;6082587;19;20376;-76
2023/09/16 04:28:18;;;;;;;82.35;33.10;;;;;;;13.23;100.00;101430.31;6082852;19;20016;-74
2023/09/16 04:30:26;;;;;;;72.47;34.25;;;;;;;13.27;100.00;101428.44;6078239;19;20388;-75
2023/09/16 04:32:31;;;;;;;78.10;35.22;;;;;;;13.30;100.00;101431.81;6082302;19;20019;-74
2023/09/16 04:34:36;;;;;;;82.13;34.20;;;;;;;13.28;100.00;101435.44;6082411;19;20324;-74
2023/09/16 04:36:44;;;;;;;75.63;34.22;;;;;;;13.26;100.00;101432.88;6076657;19;20011;-75
2023/09/16 04:38:50;;;;;;;65.47;30.85;;;;;;;13.24;100.00;101428.53;6080130;19;20082;-74
2023/09/16 04:40:55;;;;;;;61.80;28.55;;;;;;;13.22;100.00;101428.63;6076370;19;20031;-74
2023/09/16 04:43:03;;;;;;;63.20;28.23;;;;;;;13.20;100.00;101424.31;6080798;19;20487;-75
2023/09/16 04:45:09;;;;;;;64.03;28.10;;;;;;;13.18;100.00;101419.94;6075682;19;20375;-74
2023/09/16 04:47:17;;;;;;;60.85;28.55;;;;;;;13.18;100.00;101419.09;6080922;19;20507;-74
2023/09/16 04:49:24;;;;;;;56.70;28.00;;;;;;;13.20;100.00;101417.25;6079628;19;20023;-76
2023/09/16 04:51:29;;;;;;;60.10;27.70;;;;;;;13.20;100.00;101411.13;6069962;19;20082;-76
2023/09/16 04:53:35;;;;;;;67.75;30.33;;;;;;;13.17;100.00;101418.25;6072143;19;20038;-76
2023/09/16 04:55:41;;;;;;;66.80;28.90;;;;;;;13.15;100.00;101414.81;6075178;19;20047;-75
2023/09/16 04:57:44;;;;;;;61.17;27.25;;;;;;;13.12;100.00;101414.94;6079626;19;20521;-76
2023/09/16 04:59:50;;;;;;;61.30;27.45;;;;;;;13.12;100.00;101411.44;6081588;19;20054;-75
2023/09/16 05:01:55;;;;;;;62.13;27.83;;;;;;;13.12;100.00;101414.94;6080282;19;20022;-75
2023/09/16 05:04:03;;;;;;;56.95;25.70;;;;;;;13.11;100.00;101418.53;6075673;19;20015;-74
2023/09/16 05:06:08;;;;;;;54.08;27.90;;;;;;;13.11;100.00;101409.72;6082638;19;20464;-74
2023/09/16 05:08:14;;;;;;;51.90;25.95;;;;;;;13.09;100.00;101414.22;6077571;19;20014;-74
2023/09/16 05:10:19;;;;;;;54.58;26.05;;;;;;;13.07;100.00;101411.63;6076538;19;20015;-74
2023/09/16 05:12:24;;;;;;;51.38;25.08;;;;;;;13.06;100.00;101414.31;6078302;19;20517;-74
2023/09/16 05:14:29;;;;;;;50.92;27.08;;;;;;;13.01;100.00;101411.91;6077364;19;20055;-75
2023/09/16 05:16:32;;;;;;;50.75;24.55;;;;;;;12.94;100.00;101415.72;6078200;19;20503;-76
2023/09/16 05:18:37;;;;;;;42.45;21.90;;;;;;;12.89;100.00;101418.53;6077502;19;20075;-76
2023/09/16 05:20:47;;;;;;;57.10;25.80;;;;;;;12.90;100.00;101416.75;6080526;19;20174;-76
2023/09/16 05:22:53;;;;;;;47.20;24.38;;;;;;;12.88;100.00;101413.34;6079158;19;20015;-76
2023/09/16 05:24:58;;;;;;;43.72;23.67;;;;;;;12.88;100.00;101415.97;6082695;19;20015;-74
2023/09/16 05:27:03;;;;;;;48.35;23.63;;;;;;;12.85;100.00;101422.22;6080992;19;20410;-74
2023/09/16 05:29:09;;;;;;;45.17;23.52;;;;;;;12.84;100.00;101423.13;6088163;19;20019;-76
2023/09/16 05:31:14;;;;;;;38.05;22.05;;;;;;;12.85;100.00;101421.34;6081204;19;20014;-76
2023/09/16 05:33:22;;;;;;;42.90;22.85;;;;;;;12.85;100.00;101423.97;6079050;19;20028;-74
2023/09/16 05:35:27;;;;;;;45.50;22.63;;;;;;;12.86;100.00;101425.72;6078011;19;20447;-75
2023/09/16 05:37:35;;;;;;;38.88;23.13;;;;;;;12.91;100.00;101423.75;6072452;19;20530;-75
2023/09/16 05:39:40;;;;;;;44.42;23.05;;;;;;;12.98;100.00;101422.59;6073346;19;20316;-77
2023/09/16 05:41:48;;;;;;;42.85;21.50;;;;;;;13.00;100.00;101428.63;6077022;19;20013;-74
2023/09/16 05:43:54;;;;;;;40.03;22.00;;;;;;;13.06;100.00;101431.03;6075440;19;20791;-74
2023/09/16 05:46:01;;;;;;;41.83;22.50;;;;;;;13.09;100.00;101436.19;6077430;19;20018;-74
2023/09/16 05:48:07;;;;;;;36.08;20.13;;;;;;;13.12;100.00;101438.69;6082545;19;20031;-74
2023/09/16 05:50:13;;;;;;;45.88;19.65;;;;;;;13.20;100.00;101437.53;6075721;19;20006;-75
2023/09/16 05:52:18;;;;;;;37.22;21.90;;;;;;;13.28;100.00;101435.44;6073863;19;20208;-75
2023/09/16 05:54:27;;;;;;;39.80;21.13;;;;;;;13.35;100.00;101434.28;6077118;19;20534;-76
2023/09/16 05:56:37;;;;;;;33.28;19.77;;;;;;;13.39;100.00;101431.41;6082842;19;20019;-76
2023/09/16 05:58:42;;;;;;;32.17;20.20;;;;;;;13.49;100.00;101438.97;6078520;19;20269;-76
2023/09/16 06:00:55;;;;;;;35.28;20.48;;;;;;;13.57;100.00;101435.06;6079120;19;20009;-74
2023/09/16 06:03:00;;;;;;;35.38;19.73;;;;;;;13.67;100.00;101437.31;6078438;19;20021;-74
2023/09/16 06:05:06;;;;;;;38.75;20.17;;;;;;;13.77;100.00;101441.22;6075568;19;20047;-75
2023/09/16 06:07:12;;;;;;;38.58;21.02;;;;;;;13.85;100.00;101441.78;6077652;19;20463;-75
2023/09/16 06:09:18;;;;;;;37.97;20.65;;;;;;;13.92;100.00;101437.06;6079204;19;20316;-74
2023/09/16 06:11:29;;;;;;;38.20;21.15;;;;;;;14.01;100.00;101448.09;6073804;19;20528;-74
2023/09/16 06:13:34;;;;;;;39.30;21.35;;;;;;;14.10;100.00;101445.94;6074796;19;20086;-75
2023/09/16 06:15:40;;;;;;;43.17;20.83;;;;;;;14.16;100.00;101448.28;6078955;19;20022;-76
2023/09/16 06:17:48;;;;;;;35.80;19.52;;;;;;;14.21;100.00;101454.22;6069604;19;20459;-75
2023/09/16 06:19:56;;;;;;;39.13;21.02;;;;;;;14.26;100.00;101458.38;6075040;19;20015;-74
2023/09/16 06:22:01;;;;;;;33.80;20.60;;;;;;;14.28;100.00;101458.31;6076122;19;20010;-75
2023/09/16 06:24:07;;;;;;;39.72;22.40;;;;;;;14.34;100.00;101458.03;6078825;19;20256;-77
2023/09/16 06:26:13;;;;;;;38.22;20.80;;;;;;;14.39;100.00;101463.09;6073155;19;20811;-76
2023/09/16 06:28:20;;;;;;;32.70;21.25;;;;;;;14.45;100.00;101463.66;6070229;19;20014;-74
2023/09/16 06:30:25;;;;;;;34.55;21.25;;;;;;;14.50;100.00;101458.16;6075421;19;20068;-75
2023/09/16 06:32:30;;;;;;;35.13;21.65;;;;;;;14.55;100.00;101463.28;6075062;19;20018;-74
2023/09/16 06:34:35;;;;;;;34.70;21.48;;;;;;;14.62;100.00;101462.06;6074114;19;20538;-75
2023/09/16 06:36:41;;;;;;;39.53;20.85;;;;;;;14.66;100.00;101467.13;6077209;19;20010;-75
2023/09/16 06:38:46;;;;;;;38.60;21.85;;;;;;;14.68;100.00;101459.97;6073295;19;20519;-74
2023/09/16 06:40:51;;;;;;;37.08;21.80;;;;;;;14.71;100.00;101464.25;6074772;19;20615;-76
2023/09/16 06:43:00;;;;;;;34.88;21.30;;;;;;;14.81;100.00;101464.69;6080264;19;20018;-76
2023/09/16 06:45:09;;;;;;;36.42;21.58;;;;;;;14.90;100.00;101459.81;6074575;19;20414;-75
2023/09/16 06:47:14;;;;;;;37.28;22.85;;;;;;;14.97;100.00;101464.81;6074142;19;20055;-76
2023/09/16 06:49:20;;;;;;;35.38;20.88;;;;;;;15.03;100.00;101454.75;6068432;19;20388;-76
2023/09/16 06:51:25;;;;;;;35.03;21.98;;;;;;;15.12;100.00;101464.06;6077875;19;20025;-75
2023/09/16 06:53:31;;;;;;;36.97;21.90;;;;;;;15.24;100.00;101458.13;6069439;19;20022;-74
2023/09/16 06:55:37;;;;;;;37.17;21.17;;;;;;;15.37;100.00;101463.66;6073428;19;20103;-76
2023/09/16 06:57:43;;;;;;;33.30;22.48;;;;;;;15.52;100.00;101462.03;6077199;19;20014;-76
2023/09/16 07:00:10;;;;;;;38.10;22.00;;;;;;;15.70;100.00;101463.78;6061648;19;20821;-74
2023/09/16 07:02:19;;;;;;;39.72;21.83;;;;;;;15.90;100.00;101461.84;6073927;19;20040;-76
2023/09/16 07:04:28;;;;;;;39.70;23.02;;;;;;;16.14;100.00;101457.03;6060452;19;20019;-76
2023/09/16 07:06:34;;;;;;;40.33;23.52;;;;;;;16.24;100.00;101464.44;6071917;19;20051;-74
2023/09/16 07:08:54;;;;;;;40.63;24.23;;;;;;;16.49;100.00;101465.72;6039374;19;20320;-77
2023/09/16 07:11:17;;;;;;;39.17;22.63;;;;;;;16.62;100.00;101461.47;6020930;19;20643;-76
2023/09/16 07:13:22;;;;;;;36.72;22.98;;;;;;;16.86;100.00;101459.25;6072642;19;20017;-75
2023/09/16 07:15:27;;;;;;;36.58;22.60;;;;;;;17.01;100.00;101454.88;6079839;19;20077;-75
2023/09/16 07:17:38;;;;;;;40.88;22.63;;;;;;;17.15;100.00;101456.72;6076469;19;20026;-75
2023/09/16 07:19:43;;;;;;;36.97;22.73;;;;;;;17.37;100.00;101468.72;6072514;19;20245;-75
2023/09/16 07:21:48;;;;;;;36.80;21.75;;;;;;;17.59;99.32;101449.69;6076198;19;20190;-74
2023/09/16 07:24:00;;;;;;;36.10;21.15;;;;;;;17.67;97.62;101453.63;6073011;19;20015;-75
2023/09/16 07:26:07;;;;;;;34.35;21.33;;;;;;;17.84;95.95;101455.28;6072619;19;20036;-75
2023/09/16 07:28:12;;;;;;;36.08;20.88;;;;;;;17.86;95.78;101456.03;6073555;19;20115;-75
2023/09/16 07:30:17;;;;;;;37.30;22.00;;;;;;;17.97;95.64;101448.25;6081280;19;20018;-74
2023/09/16 07:32:23;;;;;;;35.13;21.85;;;;;;;18.27;95.05;101449.09;6075600;19;20647;-75
2023/09/16 07:34:31;;;;;;;33.05;21.10;;;;;;;18.48;94.04;101447.72;6078242;19;20245;-75
2023/09/16 07:36:36;;;;;;;36.78;20.83;;;;;;;18.69;93.36;101455.28;6076814;19;20343;-75
2023/09/16 07:38:41;;;;;;;35.45;21.02;;;;;;;18.79;91.46;101459.09;6076251;19;20474;-75
2023/09/16 07:40:46;;;;;;;35.70;21.10;;;;;;;18.68;91.99;101462.41;6073875;19;20011;-75
2023/09/16 07:42:51;;;;;;;34.30;20.52;;;;;;;18.95;90.91;101457.13;6069829;19;20276;-74
2023/09/16 07:44:58;;;;;;;35.15;20.52;;;;;;;18.96;90.71;101460.66;6074784;19;20017;-75
2023/09/16 07:47:03;;;;;;;35.67;21.80;;;;;;;18.98;90.14;101458.72;6071939;19;20015;-77
2023/09/16 07:49:08;;;;;;;30.65;19.60;;;;;;;19.00;90.26;101463.00;6071267;19;20047;-74
2023/09/16 07:51:16;;;;;;;31.23;21.50;;;;;;;19.15;89.20;101458.47;6074717;19;20018;-76
2023/09/16 07:53:21;;;;;;;33.47;20.10;;;;;;;19.29;88.71;101463.72;6071424;19;20007;-74
2023/09/16 07:55:29;;;;;;;36.22;20.23;;;;;;;19.50;87.39;101464.09;6079715;19;20011;-75
2023/09/16 07:57:34;;;;;;;35.88;21.85;;;;;;;19.57;86.02;101466.34;6072390;19;20584;-75
2023/09/16 07:59:36;;;;;;;35.45;20.35;;;;;;;19.76;86.39;101473.97;6069270;19;20010;-75
2023/09/16 08:01:44;;;;;;;33.60;20.77;;;;;;;19.81;87.11;101466.50;6070289;19;20014;-76
2023/09/16 08:03:49;;;;;;;31.67;19.52;;;;;;;20.05;85.27;101477.25;6075048;19;20821;-76
2023/09/16 08:09:46;;;;;;;33.20;20.85;;;;;;;20.35;84.03;101472.44;6023347;19;20011;-76
2023/09/16 08:12:29;;;;;;;32.05;19.48;;;;;;;20.54;82.81;101473.81;6055422;19;20575;-75
2023/09/16 08:15:21;;;;;;;31.38;19.55;;;;;;;20.64;82.80;101479.31;6063869;19;20039;-74
2023/09/16 08:18:18;;;;;;;30.67;18.15;;;;;;;20.89;80.64;101475.72;6053417;19;20013;-73
2023/09/16 08:20:44;;;;;;;29.20;18.67;;;;;;;20.97;82.13;101479.50;6045929;19;20414;-73
2023/09/16 08:23:25;;;;;;;42.28;22.05;;;;;;;21.08;80.06;101476.03;6031076;19;20021;-73
2023/09/16 08:26:02;;;;;;;36.40;20.45;;;;;;;21.13;80.43;101475.69;6054823;19;20027;-73
2023/09/16 08:28:35;;;;;;;;;;;;;;;;;;;;;
2023/09/16 08:30:57;;;;;;;35.05;19.55;;;;;;;20.48;81.69;101488.38;6019121;19;20289;-75
2023/09/16 08:35:56;;;;;;;32.10;19.93;;;;;;;20.85;80.78;101484.91;6008582;19;20007;-73
2023/09/16 08:38:26;;;;;;;29.52;18.45;;;;;;;21.14;80.70;101485.41;6047892;19;20007;-76
2023/09/16 08:41:02;;;;;;;31.00;18.30;;;;;;;21.55;79.50;101478.78;6044704;19;20055;-75
2023/09/16 08:43:39;;;;;;;31.45;18.58;;;;;;;21.42;78.13;101486.88;6049856;19;20022;-74
2023/09/16 08:46:17;;;;;;;27.63;16.42;;;;;;;21.58;77.15;101489.25;6047444;19;20408;-73
2023/09/16 08:48:36;;;;;;;32.03;18.08;;;;;;;21.50;77.66;101491.66;6077816;19;20017;-73
2023/09/16 08:50:41;;;;;;;31.45;18.42;;;;;;;21.69;76.80;101486.59;6030629;19;20527;-73
2023/09/16 08:52:53;;;;;;;28.63;18.40;;;;;;;21.75;77.15;101496.84;6059798;19;20013;-74
2023/09/16 08:55:04;;;;;;;33.13;18.25;;;;;;;21.88;75.33;101494.03;6058402;19;20300;-73
2023/09/16 08:57:29;;;;;;;27.98;16.50;;;;;;;22.02;75.79;101495.66;6031806;19;20571;-73
2023/09/16 08:59:47;;;;;;;28.73;17.35;;;;;;;22.17;75.17;101498.94;6068635;19;20011;-74
2023/09/16 09:02:05;;;;;;;28.05;17.80;;;;;;;22.19;74.94;101491.66;6078860;19;20602;-75
2023/09/16 09:04:30;;;;;;;30.75;16.95;;;;;;;22.22;74.02;101494.09;6072731;19;20002;-74
2023/09/16 09:06:45;;;;;;;30.25;17.25;;;;;;;22.30;73.76;101505.94;6070280;19;20451;-75
2023/09/16 09:08:54;;;;;;;26.70;15.60;;;;;;;22.26;74.01;101495.56;6044452;19;20505;-73
2023/09/16 09:11:03;;;;;;;25.48;16.13;;;;;;;22.60;73.53;101504.44;6070857;19;20010;-73
2023/09/16 09:13:22;;;;;;;27.60;14.93;;;;;;;22.63;72.96;101504.19;6065418;19;20500;-73
2023/09/16 09:15:33;;;;;;;29.83;15.33;;;;;;;22.97;71.07;101506.81;6062528;19;20298;-73
2023/09/16 09:17:48;;;;;;;25.08;15.70;;;;;;;23.16;70.05;101506.97;6049007;19;20305;-73
2023/09/16 09:19:58;;;;;;;25.13;15.30;;;;;;;23.22;69.91;101497.56;6061669;19;20010;-74
2023/09/16 09:22:08;;;;;;;24.70;14.65;;;;;;;23.85;69.96;101503.84;6047593;19;20590;-74
2023/09/16 09:24:15;;;;;;;24.52;13.18;;;;;;;24.25;67.71;101503.06;6069013;19;20511;-74
2023/09/16 09:26:27;;;;;;;24.90;14.13;;;;;;;24.14;65.20;101508.50;6077172;19;20055;-73
2023/09/16 09:28:49;;;;;;;22.88;13.10;;;;;;;24.55;65.24;101505.91;6056201;19;20687;-73
2023/09/16 09:31:10;;;;;;;22.52;12.32;;;;;;;24.66;63.95;101509.31;6054197;19;20056;-74
2023/09/16 09:33:24;;;;;;;23.65;13.55;;;;;;;24.73;63.45;101506.94;6080406;19;20219;-73
2023/09/16 09:35:46;;;;;;;;;;;;;;;;;;;;;
2023/09/16 09:38:01;;;;;;;22.65;12.90;;;;;;;24.72;62.07;101507.91;6054554;19;20018;-74
2023/09/16 09:40:07;;;;;;;21.80;13.18;;;;;;;24.71;62.10;101503.53;6054002;19;20482;-75
2023/09/16 09:42:22;;;;;;;19.02;11.05;;;;;;;25.00;61.80;101516.19;6068241;19;20014;-74
2023/09/16 09:44:49;;;;;;;;;;;;;;;;;;;;;
2023/09/16 09:49:23;;;;;;;18.00;11.13;;;;;;;24.91;60.11;101513.34;6036743;19;20044;-74
2023/09/16 09:51:47;;;;;;;;;;;;;;;;;;;;;
2023/09/16 09:57:58;;;;;;;17.58;11.77;;;;;;;25.10;59.49;101517.03;6049540;19;20260;-73